createdAt,value
2022-07-29T00:01:43.869Z,85.90
2022-07-29T00:04:12.136Z,85.40
2022-07-29T00:06:42.465Z,88.90
2022-07-29T00:09:10.686Z,90.00
2022-07-29T00:11:39.132Z,88.10
2022-07-29T00:14:07.354Z,90.00
2022-07-29T00:16:35.577Z,90.10
2022-07-29T00:19:03.786Z,90.20
2022-07-29T00:21:32.027Z,90.50
2022-07-29T00:24:01.566Z,90.50
2022-07-29T00:26:32.696Z,90.10
2022-07-29T00:29:31.865Z,90.30
2022-07-29T00:31:49.364Z,87.50
2022-07-29T00:34:31.399Z,86.60
2022-07-29T00:36:59.741Z,80.10
2022-07-29T00:39:29.217Z,81.30
2022-07-29T00:41:57.256Z,80.70
2022-07-29T00:44:25.297Z,80.00
2022-07-29T00:46:53.499Z,78.40
2022-07-29T00:49:21.601Z,78.30
2022-07-29T00:51:51.490Z,76.70
2022-07-29T00:54:19.866Z,76.20
2022-07-29T00:56:49.351Z,75.00
2022-07-29T00:59:17.477Z,75.10
2022-07-29T01:01:45.612Z,75.20
2022-07-29T01:04:14.063Z,74.10
2022-07-29T01:06:42.896Z,74.00
2022-07-29T01:09:11.987Z,73.40
2022-07-29T01:11:41.069Z,72.50
2022-07-29T01:14:12.324Z,72.50
2022-07-29T01:16:46.221Z,72.50
2022-07-29T01:19:35.162Z,71.10
2022-07-29T01:22:20.569Z,71.00
2022-07-29T01:25:12.222Z,71.40
2022-07-29T01:28:02.048Z,70.80
2022-07-29T01:30:32.890Z,71.20
2022-07-29T01:33:08.144Z,70.80
2022-07-29T01:35:38.678Z,72.30
2022-07-29T01:38:10.643Z,71.10
2022-07-29T01:40:43.562Z,70.50
2022-07-29T01:43:14.998Z,71.50
2022-07-29T01:45:48.804Z,71.50
2022-07-29T01:48:21.980Z,70.60
2022-07-29T01:50:54.032Z,70.70
2022-07-29T01:53:28.876Z,70.70
2022-07-29T01:56:07.106Z,70.40
2022-07-29T01:58:37.129Z,70.80
2022-07-29T02:01:07.346Z,70.30
2022-07-29T02:03:37.768Z,71.20
2022-07-29T02:06:08.520Z,71.30
2022-07-29T02:08:38.519Z,71.60
2022-07-29T02:11:07.320Z,72.00
2022-07-29T02:13:38.379Z,71.30
2022-07-29T02:16:11.362Z,72.00
2022-07-29T02:18:42.903Z,72.40
2022-07-29T02:21:15.029Z,72.40
2022-07-29T02:23:51.373Z,73.10
2022-07-29T02:26:21.391Z,73.20
2022-07-29T02:28:51.399Z,72.80
2022-07-29T02:31:24.073Z,73.60
2022-07-29T02:33:53.872Z,72.90
2022-07-29T02:36:24.818Z,73.40
2022-07-29T02:38:58.348Z,73.00
2022-07-29T02:41:30.599Z,72.60
2022-07-29T02:44:03.931Z,73.10
2022-07-29T02:46:36.660Z,73.00
2022-07-29T02:49:12.279Z,72.70
2022-07-29T02:51:45.655Z,73.30
2022-07-29T02:54:35.879Z,72.00
2022-07-29T02:57:11.467Z,72.60
2022-07-29T02:59:42.249Z,73.60
2022-07-29T03:02:13.743Z,73.30
2022-07-29T03:04:43.799Z,74.50
2022-07-29T03:07:15.188Z,73.70
2022-07-29T03:09:44.846Z,75.30
2022-07-29T03:12:13.421Z,75.00
2022-07-29T03:14:41.914Z,72.50
2022-07-29T03:17:12.089Z,73.70
2022-07-29T03:19:41.033Z,74.10
2022-07-29T03:22:09.722Z,74.30
2022-07-29T03:24:38.917Z,74.90
2022-07-29T03:27:07.379Z,75.70
2022-07-29T03:29:35.692Z,76.00
2022-07-29T03:32:07.533Z,76.60
2022-07-29T03:34:39.460Z,76.30
2022-07-29T03:37:08.292Z,77.70
2022-07-29T03:39:42.562Z,77.50
2022-07-29T03:42:15.044Z,77.00
2022-07-29T03:44:45.659Z,75.80
2022-07-29T03:47:16.158Z,76.40
2022-07-29T03:49:48.565Z,76.20
2022-07-29T03:52:16.890Z,76.40
2022-07-29T03:54:45.192Z,76.30
2022-07-29T03:57:14.345Z,74.20
2022-07-29T03:59:43.740Z,75.20
2022-07-29T04:02:14.830Z,76.10
2022-07-29T04:04:46.118Z,76.00
2022-07-29T04:07:14.916Z,75.10
2022-07-29T04:09:42.953Z,75.10
2022-07-29T04:12:11.868Z,75.10
2022-07-29T04:14:41.118Z,74.80
2022-07-29T04:17:09.354Z,74.40
2022-07-29T04:19:37.472Z,74.50
2022-07-29T04:22:06.948Z,75.10
2022-07-29T04:24:35.007Z,74.70
2022-07-29T04:27:03.109Z,75.80
2022-07-29T04:29:31.208Z,76.30
2022-07-29T04:31:59.268Z,75.20
2022-07-29T04:34:27.928Z,75.70
2022-07-29T04:36:56.520Z,74.90
2022-07-29T04:39:25.994Z,74.70
2022-07-29T04:41:58.024Z,73.10
2022-07-29T04:44:28.911Z,74.10
2022-07-29T04:46:58.296Z,73.10
2022-07-29T04:49:26.646Z,74.60
2022-07-29T04:51:54.776Z,75.90
2022-07-29T04:54:22.802Z,76.50
2022-07-29T04:56:52.241Z,76.30
2022-07-29T04:59:20.331Z,75.10
2022-07-29T05:01:48.516Z,76.20
2022-07-29T05:04:17.041Z,75.80
2022-07-29T05:06:45.463Z,75.00
2022-07-29T05:09:13.498Z,74.30
2022-07-29T05:11:41.547Z,74.80
2022-07-29T05:14:11.017Z,75.80
2022-07-29T05:16:40.161Z,74.40
2022-07-29T05:19:12.267Z,75.20
2022-07-29T05:21:42.235Z,75.30
2022-07-29T05:24:10.497Z,73.90
2022-07-29T05:26:38.592Z,74.20
2022-07-29T05:29:06.715Z,74.90
2022-07-29T05:31:36.220Z,74.10
2022-07-29T05:34:04.406Z,74.00
2022-07-29T05:36:32.475Z,74.00
2022-07-29T05:39:00.510Z,72.80
2022-07-29T05:41:28.732Z,73.10
2022-07-29T05:43:56.808Z,73.10
2022-07-29T05:46:25.039Z,73.90
2022-07-29T05:48:54.564Z,74.10
2022-07-29T05:51:22.670Z,75.40
2022-07-29T05:53:50.756Z,73.80
2022-07-29T05:56:18.836Z,75.70
2022-07-29T05:58:46.983Z,74.70
2022-07-29T06:01:15.230Z,75.20
2022-07-29T06:03:44.081Z,75.90
2022-07-29T06:06:13.858Z,78.30
2022-07-29T06:08:42.442Z,79.20
2022-07-29T06:11:10.638Z,77.00
2022-07-29T06:13:41.815Z,79.20
2022-07-29T06:16:10.059Z,76.60
2022-07-29T06:18:44.250Z,76.10
2022-07-29T06:21:13.927Z,77.50
2022-07-29T06:23:42.556Z,76.70
2022-07-29T06:26:10.823Z,76.30
2022-07-29T06:28:39.044Z,76.20
2022-07-29T06:31:08.053Z,78.60
2022-07-29T06:33:38.486Z,79.90
2022-07-29T06:36:07.298Z,79.60
2022-07-29T06:38:40.596Z,78.80
2022-07-29T06:41:16.867Z,78.90
2022-07-29T06:43:51.959Z,79.80
2022-07-29T06:46:23.897Z,77.80
2022-07-29T06:48:53.131Z,77.90
2022-07-29T06:51:23.089Z,77.50
2022-07-29T06:53:59.957Z,77.00
2022-07-29T06:56:31.819Z,79.40
2022-07-29T06:59:00.116Z,77.70
2022-07-29T07:01:29.854Z,78.70
2022-07-29T07:03:58.481Z,77.80
2022-07-29T07:06:26.567Z,76.00
2022-07-29T07:08:56.139Z,78.90
2022-07-29T07:11:24.215Z,78.40
2022-07-29T07:13:52.293Z,78.60
2022-07-29T07:16:20.545Z,78.80
2022-07-29T07:18:48.694Z,80.10
2022-07-29T07:21:18.920Z,79.80
2022-07-29T07:23:47.660Z,81.20
2022-07-29T07:26:17.908Z,81.50
2022-07-29T07:28:46.040Z,80.10
2022-07-29T07:31:15.186Z,78.70
2022-07-29T07:33:43.319Z,80.10
2022-07-29T07:36:11.434Z,80.50
2022-07-29T07:38:39.474Z,80.30
2022-07-29T07:41:07.554Z,80.20
2022-07-29T07:43:40.847Z,80.60
2022-07-29T07:46:09.169Z,80.30
2022-07-29T07:48:37.340Z,80.80
2022-07-29T07:51:05.612Z,83.60
2022-07-29T07:53:33.725Z,85.70
2022-07-29T07:56:11.300Z,87.50
2022-07-29T07:58:41.631Z,88.70
2022-07-29T08:01:09.880Z,90.00
2022-07-29T08:03:38.428Z,88.60
2022-07-29T08:06:07.158Z,87.50
2022-07-29T08:08:35.289Z,89.60
2022-07-29T08:11:09.010Z,90.50
2022-07-29T08:13:39.019Z,90.60
2022-07-29T08:16:13.973Z,90.10
2022-07-29T08:18:45.319Z,89.00
2022-07-29T08:21:15.128Z,89.10
2022-07-29T08:23:56.160Z,88.60
2022-07-29T08:26:27.986Z,85.30
2022-07-29T08:28:56.099Z,87.70
2022-07-29T08:31:25.648Z,90.70
2022-07-29T08:33:53.857Z,88.80
2022-07-29T08:36:22.974Z,89.90
2022-07-29T08:38:52.088Z,91.20
2022-07-29T08:41:21.269Z,91.70
2022-07-29T08:43:49.475Z,92.30
2022-07-29T08:46:18.413Z,93.00
2022-07-29T08:48:48.505Z,93.70
2022-07-29T08:51:18.409Z,94.30
2022-07-29T08:53:49.287Z,93.60
2022-07-29T08:56:19.069Z,93.60
2022-07-29T08:58:51.748Z,92.10
2022-07-29T09:01:36.353Z,90.50
2022-07-29T09:04:13.892Z,85.10
2022-07-29T09:06:46.437Z,75.70
2022-07-29T09:09:15.710Z,73.60
2022-07-29T09:11:44.580Z,70.30
2022-07-29T09:14:14.445Z,68.00
2022-07-29T09:16:54.997Z,67.10
2022-07-29T09:19:29.343Z,70.40
2022-07-29T09:22:03.316Z,70.50
2022-07-29T09:24:45.553Z,71.30
2022-07-29T09:27:21.677Z,75.70
2022-07-29T09:29:57.521Z,72.70
2022-07-29T09:32:27.176Z,76.80
2022-07-29T09:35:16.640Z,74.80
2022-07-29T09:37:44.954Z,74.00
2022-07-29T09:40:18.021Z,73.40
2022-07-29T09:42:46.460Z,76.30
2022-07-29T09:45:15.289Z,77.90
2022-07-29T09:47:47.855Z,80.90
2022-07-29T09:50:20.679Z,81.00
2022-07-29T09:52:50.642Z,78.80
2022-07-29T09:55:19.954Z,75.90
2022-07-29T09:57:48.999Z,73.00
2022-07-29T10:00:19.740Z,68.60
2022-07-29T10:02:49.205Z,65.10
2022-07-29T10:05:23.905Z,64.80
2022-07-29T10:07:57.555Z,59.50
2022-07-29T10:10:28.109Z,59.70
2022-07-29T10:13:01.813Z,63.50
2022-07-29T10:15:38.155Z,55.60
2022-07-29T10:18:06.865Z,52.30
2022-07-29T10:20:36.840Z,53.20
2022-07-29T10:23:05.461Z,53.00
2022-07-29T10:25:33.897Z,53.30
2022-07-29T10:28:01.993Z,51.60
2022-07-29T10:30:30.124Z,52.80
2022-07-29T10:33:23.723Z,53.90
2022-07-29T10:36:07.118Z,56.90
2022-07-29T10:38:46.037Z,55.70
2022-07-29T10:41:53.075Z,56.50
2022-07-29T10:44:23.842Z,55.80
2022-07-29T10:46:52.946Z,56.10
2022-07-29T10:49:25.025Z,57.20
2022-07-29T10:51:57.219Z,58.10
2022-07-29T10:55:01.271Z,59.50
2022-07-29T10:57:53.341Z,60.20
2022-07-29T11:00:33.013Z,57.50
2022-07-29T11:03:04.639Z,55.00
2022-07-29T11:05:59.606Z,51.60
2022-07-29T11:08:31.766Z,53.50
2022-07-29T11:15:00.190Z,55.20
2022-07-29T11:17:37.542Z,53.70
2022-07-29T11:20:37.814Z,57.10
2022-07-29T11:23:21.729Z,57.10
2022-07-29T11:26:18.941Z,59.60
2022-07-29T11:28:53.888Z,63.20
2022-07-29T11:31:35.892Z,61.70
2022-07-29T11:34:36.445Z,60.10
2022-07-29T11:37:28.299Z,61.10
2022-07-29T11:40:18.420Z,57.90
2022-07-29T11:42:52.399Z,54.40
2022-07-29T11:45:42.848Z,55.20
2022-07-29T11:51:13.292Z,49.90
2022-07-29T11:53:41.583Z,46.70
2022-07-29T11:56:11.412Z,44.70
2022-07-29T11:58:47.418Z,45.50
2022-07-29T12:01:16.265Z,47.20
2022-07-29T12:03:44.862Z,48.50
2022-07-29T12:06:18.004Z,50.50
2022-07-29T12:07:03.374Z,53.90
2022-07-29T12:08:47.442Z,48.50
2022-07-29T12:11:20.794Z,50.90
2022-07-29T12:13:52.344Z,45.70
2022-07-29T12:16:26.068Z,45.00
2022-07-29T12:18:59.518Z,47.00
2022-07-29T12:21:28.891Z,48.30
2022-07-29T12:24:05.465Z,45.50
2022-07-29T12:26:36.873Z,44.30
2022-07-29T12:29:11.438Z,45.60
2022-07-29T12:31:45.561Z,44.80
2022-07-29T12:34:14.461Z,45.60
2022-07-29T12:36:43.736Z,48.40
2022-07-29T12:39:14.871Z,48.00
2022-07-29T12:41:43.055Z,45.40
2022-07-29T12:44:12.707Z,48.60
2022-07-29T12:46:40.817Z,49.50
2022-07-29T12:49:09.174Z,46.60
2022-07-29T12:51:41.373Z,50.60
2022-07-29T12:54:12.187Z,51.20
2022-07-29T12:56:43.515Z,52.30
2022-07-29T12:59:19.616Z,55.20
2022-07-29T13:01:50.266Z,52.10
2022-07-29T13:04:28.797Z,52.10
2022-07-29T13:07:04.538Z,51.00
2022-07-29T13:09:40.449Z,54.70
2022-07-29T13:12:10.927Z,55.00
2022-07-29T13:14:42.016Z,56.80
2022-07-29T13:17:12.230Z,56.40
2022-07-29T13:19:42.405Z,54.30
2022-07-29T13:22:11.309Z,54.60
2022-07-29T13:24:53.305Z,53.90
2022-07-29T13:27:23.436Z,52.40
2022-07-29T13:29:53.462Z,49.70
2022-07-29T13:32:27.958Z,49.00
2022-07-29T13:34:57.559Z,47.00
2022-07-29T13:37:25.766Z,46.40
2022-07-29T13:39:55.114Z,45.00
2022-07-29T13:42:23.235Z,44.30
2022-07-29T13:44:53.085Z,43.50
2022-07-29T13:47:21.564Z,44.80
2022-07-29T13:49:49.997Z,45.70
2022-07-29T13:52:18.366Z,46.90
2022-07-29T13:54:46.560Z,49.60
2022-07-29T13:57:15.184Z,53.50
2022-07-29T13:59:44.470Z,54.90
2022-07-29T14:02:15.723Z,53.20
2022-07-29T14:04:43.876Z,51.00
2022-07-29T14:07:12.090Z,48.70
2022-07-29T14:09:44.642Z,50.80
2022-07-29T14:12:13.086Z,50.00
2022-07-29T14:14:42.427Z,54.60
2022-07-29T14:17:11.195Z,57.00
2022-07-29T14:19:40.632Z,56.20
2022-07-29T14:22:10.696Z,58.40
2022-07-29T14:24:39.616Z,60.50
2022-07-29T14:27:08.513Z,62.40
2022-07-29T14:29:38.211Z,59.60
2022-07-29T14:32:07.607Z,60.00
2022-07-29T14:34:36.052Z,58.10
2022-07-29T14:37:07.265Z,56.10
2022-07-29T14:39:42.613Z,55.20
2022-07-29T14:42:12.604Z,53.70
2022-07-29T14:44:42.269Z,51.00
2022-07-29T14:47:11.200Z,52.80
2022-07-29T14:49:39.197Z,51.10
2022-07-29T14:52:08.647Z,52.00
2022-07-29T14:54:36.688Z,51.40
2022-07-29T14:57:04.833Z,52.90
2022-07-29T14:59:32.950Z,56.70
2022-07-29T15:02:01.559Z,57.70
2022-07-29T15:04:30.006Z,53.30
2022-07-29T15:07:00.174Z,56.00
2022-07-29T15:09:29.709Z,57.80
2022-07-29T15:11:58.232Z,59.10
2022-07-29T15:14:26.452Z,58.20
2022-07-29T15:16:54.574Z,61.00
2022-07-29T15:19:22.664Z,61.80
2022-07-29T15:21:50.704Z,61.80
2022-07-29T15:24:19.270Z,61.00
2022-07-29T15:26:49.268Z,63.00
2022-07-29T15:29:19.375Z,64.20
2022-07-29T15:31:47.485Z,63.90
2022-07-29T15:34:15.646Z,64.80
2022-07-29T15:36:52.872Z,61.00
2022-07-29T15:39:21.500Z,63.30
2022-07-29T15:41:51.079Z,63.10
2022-07-29T15:44:19.421Z,65.70
2022-07-29T15:47:08.182Z,65.10
2022-07-29T15:49:47.607Z,65.80
2022-07-29T15:52:19.047Z,65.20
2022-07-29T15:54:53.016Z,65.10
2022-07-29T15:57:22.693Z,66.20
2022-07-29T15:59:50.911Z,64.10
2022-07-29T16:02:19.000Z,63.90
2022-07-29T16:04:47.310Z,62.40
2022-07-29T16:07:15.714Z,63.30
2022-07-29T16:09:44.857Z,63.30
2022-07-29T16:12:17.548Z,62.60
2022-07-29T16:14:49.403Z,63.70
2022-07-29T16:17:17.897Z,62.90
2022-07-29T16:19:46.547Z,63.80
2022-07-29T16:22:15.089Z,62.00
2022-07-29T16:24:43.301Z,62.60
2022-07-29T16:27:11.362Z,62.10
2022-07-29T16:29:39.612Z,63.10
2022-07-29T16:32:09.202Z,62.80
2022-07-29T16:34:37.263Z,63.50
2022-07-29T16:37:05.861Z,62.80
2022-07-29T16:39:34.058Z,63.60
2022-07-29T16:42:05.086Z,64.40
2022-07-29T16:44:34.865Z,63.90
2022-07-29T16:47:04.264Z,63.80
2022-07-29T16:49:33.886Z,63.40
2022-07-29T16:52:02.042Z,62.00
2022-07-29T16:54:30.151Z,62.60
2022-07-29T16:57:00.771Z,64.10
2022-07-29T16:59:29.595Z,64.80
2022-07-29T17:01:57.927Z,64.20
2022-07-29T17:04:27.502Z,65.10
2022-07-29T17:06:57.286Z,64.30
2022-07-29T17:09:25.751Z,65.10
2022-07-29T17:11:55.055Z,65.00
2022-07-29T17:14:24.992Z,68.00
2022-07-29T17:17:01.281Z,65.50
2022-07-29T17:19:33.663Z,66.50
2022-07-29T17:22:15.562Z,67.60
2022-07-29T17:24:47.262Z,68.80
2022-07-29T17:27:15.756Z,71.50
2022-07-29T17:29:44.230Z,67.90
2022-07-29T17:32:12.759Z,71.00
2022-07-29T17:34:42.716Z,71.80
2022-07-29T17:37:15.014Z,70.10
2022-07-29T17:39:43.974Z,71.10
2022-07-29T17:42:13.916Z,70.80
2022-07-29T17:44:42.458Z,70.30
2022-07-29T17:47:16.500Z,71.70
2022-07-29T17:49:45.115Z,71.30
2022-07-29T17:52:15.883Z,70.30
2022-07-29T17:54:44.004Z,69.90
2022-07-29T17:57:12.057Z,70.00
2022-07-29T17:59:40.128Z,71.90
2022-07-29T18:02:09.997Z,72.10
2022-07-29T18:04:38.124Z,72.90
2022-07-29T18:07:06.217Z,72.50
2022-07-29T18:09:35.650Z,72.10
2022-07-29T18:12:03.669Z,72.10
2022-07-29T18:14:31.716Z,72.50
2022-07-29T18:17:00.251Z,72.00
2022-07-29T18:19:29.679Z,72.30
2022-07-29T18:22:03.179Z,73.30
2022-07-29T18:24:33.288Z,71.30
2022-07-29T18:27:02.935Z,72.40
2022-07-29T18:29:31.056Z,73.00
2022-07-29T18:31:59.920Z,72.90
2022-07-29T18:34:28.177Z,72.50
2022-07-29T18:36:56.423Z,71.60
2022-07-29T18:39:24.733Z,71.00
2022-07-29T18:41:52.837Z,71.20
2022-07-29T18:44:23.031Z,72.10
2022-07-29T18:46:52.179Z,72.60
2022-07-29T18:49:21.535Z,72.70
2022-07-29T18:51:50.002Z,73.10
2022-07-29T18:54:18.497Z,73.10
2022-07-29T18:56:46.869Z,72.40
2022-07-29T18:59:16.920Z,72.90
2022-07-29T19:01:46.671Z,73.50
2022-07-29T19:04:14.780Z,74.80
2022-07-29T19:06:43.083Z,75.80
2022-07-29T19:09:11.592Z,75.90
2022-07-29T19:11:39.897Z,76.20
2022-07-29T19:14:08.690Z,77.60
2022-07-29T19:16:36.741Z,77.00
2022-07-29T19:19:07.264Z,76.30
2022-07-29T19:21:35.921Z,77.20
2022-07-29T19:24:07.825Z,79.30
2022-07-29T19:26:43.875Z,77.70
2022-07-29T19:29:11.901Z,78.50
2022-07-29T19:31:40.081Z,80.40
2022-07-29T19:34:09.742Z,81.80
2022-07-29T19:36:38.734Z,79.60
2022-07-29T19:39:07.098Z,80.00
2022-07-29T19:41:35.444Z,80.00
2022-07-29T19:44:03.672Z,81.20
2022-07-29T19:46:31.845Z,80.30
2022-07-29T19:49:00.022Z,82.10
2022-07-29T19:51:29.697Z,81.80
2022-07-29T19:53:57.867Z,82.80
2022-07-29T19:56:27.368Z,82.30
2022-07-29T19:58:56.734Z,83.00
2022-07-29T20:01:25.713Z,83.10
2022-07-29T20:03:53.932Z,85.20
2022-07-29T20:06:23.097Z,86.00
2022-07-29T20:08:55.473Z,91.10
2022-07-29T20:11:27.317Z,91.50
2022-07-29T20:13:55.443Z,93.70
2022-07-29T20:16:23.542Z,95.20
2022-07-29T20:18:53.691Z,96.00
2022-07-29T20:21:21.810Z,98.50
2022-07-29T20:23:49.977Z,99.90
2022-07-29T20:26:22.048Z,99.90
2022-07-29T20:28:50.173Z,99.90
2022-07-29T20:31:18.900Z,99.90
2022-07-29T20:33:47.224Z,99.90
2022-07-29T20:36:15.774Z,99.90
2022-07-29T20:38:43.872Z,99.90
2022-07-29T20:41:12.125Z,99.90
2022-07-29T20:43:41.901Z,99.90
2022-07-29T20:46:10.142Z,99.90
2022-07-29T20:48:39.809Z,99.90
2022-07-29T20:51:08.413Z,99.90
2022-07-29T20:53:38.369Z,99.90
2022-07-29T20:56:07.713Z,99.90
2022-07-29T20:58:36.511Z,99.90
2022-07-29T21:01:06.600Z,99.90
2022-07-29T21:03:34.879Z,99.90
2022-07-29T21:06:04.314Z,99.90
2022-07-29T21:08:32.437Z,99.90
2022-07-29T21:11:00.555Z,99.90
2022-07-29T21:13:28.953Z,99.90
2022-07-29T21:16:01.512Z,99.90
2022-07-29T21:18:36.775Z,99.90
2022-07-29T21:21:06.009Z,99.90
2022-07-29T21:23:34.171Z,99.90
2022-07-29T21:26:02.388Z,99.90
2022-07-29T21:28:34.832Z,99.90
2022-07-29T21:31:05.987Z,99.90
2022-07-29T21:33:36.268Z,99.90
2022-07-29T21:36:27.069Z,99.90
2022-07-29T21:38:53.558Z,99.90
2022-07-29T21:41:22.414Z,99.90
2022-07-29T21:43:50.518Z,99.90
2022-07-29T21:46:20.619Z,99.90
2022-07-29T21:48:53.914Z,99.90
2022-07-29T21:51:22.085Z,99.90
2022-07-29T21:53:50.638Z,99.90
2022-07-29T21:56:21.320Z,99.90
2022-07-29T21:58:52.609Z,99.90
2022-07-29T22:01:20.804Z,99.90
2022-07-29T22:03:48.915Z,99.90
2022-07-29T22:06:18.652Z,99.90
2022-07-29T22:08:47.883Z,99.90
2022-07-29T22:11:16.153Z,99.90
2022-07-29T22:13:44.249Z,99.90
2022-07-29T22:16:14.866Z,99.90
2022-07-29T22:18:45.043Z,99.90
2022-07-29T22:21:13.201Z,99.90
2022-07-29T22:23:42.780Z,99.90
2022-07-29T22:26:11.075Z,99.90
2022-07-29T22:28:39.131Z,99.90
2022-07-29T22:31:08.858Z,99.90
2022-07-29T22:33:37.138Z,99.90
2022-07-29T22:36:05.641Z,99.90
2022-07-29T22:38:33.911Z,99.90
2022-07-29T22:41:03.544Z,99.90
2022-07-29T22:43:31.626Z,99.90
2022-07-29T22:45:59.800Z,99.90
2022-07-29T22:48:28.450Z,99.90
2022-07-29T22:50:56.581Z,99.90
2022-07-29T22:53:24.613Z,99.90
2022-07-29T22:55:54.469Z,99.90
2022-07-29T22:58:23.900Z,99.90
2022-07-29T23:00:52.119Z,99.90
2022-07-29T23:03:20.469Z,99.90
2022-07-29T23:05:49.209Z,99.90
2022-07-29T23:08:17.335Z,99.90
2022-07-29T23:10:45.518Z,99.90
2022-07-29T23:13:13.580Z,99.90
2022-07-29T23:15:43.099Z,99.90
2022-07-29T23:18:11.153Z,99.90
2022-07-29T23:20:39.844Z,99.90
2022-07-29T23:23:07.949Z,99.90
2022-07-29T23:25:36.029Z,99.90
2022-07-29T23:28:05.107Z,99.90
2022-07-29T23:30:33.562Z,99.90
2022-07-29T23:33:03.182Z,99.90
2022-07-29T23:35:31.900Z,99.90
2022-07-29T23:38:00.190Z,99.90
2022-07-29T23:40:28.849Z,99.90
2022-07-29T23:42:57.107Z,99.90
2022-07-29T23:45:42.657Z,99.90
2022-07-29T23:48:15.100Z,99.90
2022-07-29T23:50:43.323Z,99.90
2022-07-29T23:53:12.194Z,99.90
2022-07-29T23:55:40.360Z,99.90
2022-07-29T23:58:08.580Z,99.90
